createdAt,value
2023-05-19T00:00:13.116Z,9.89
2023-05-19T00:01:13.088Z,9.87
2023-05-19T00:02:13.104Z,9.86
2023-05-19T00:03:13.241Z,9.86
2023-05-19T00:04:13.056Z,9.84
2023-05-19T00:05:13.036Z,9.83
2023-05-19T00:06:13.149Z,9.80
2023-05-19T00:07:13.014Z,9.80
2023-05-19T00:08:12.996Z,9.80
2023-05-19T00:09:13.009Z,9.79
2023-05-19T00:10:12.971Z,9.77
2023-05-19T00:11:12.953Z,9.76
2023-05-19T00:12:12.951Z,9.76
2023-05-19T00:13:12.967Z,9.76
2023-05-19T00:14:12.935Z,9.73
2023-05-19T00:15:12.905Z,9.72
2023-05-19T00:16:12.966Z,9.72
2023-05-19T00:17:12.877Z,9.69
2023-05-19T00:18:12.906Z,9.68
2023-05-19T00:19:12.907Z,9.66
2023-05-19T00:20:12.829Z,9.66
2023-05-19T00:21:12.819Z,9.66
2023-05-19T00:22:12.809Z,9.65
2023-05-19T00:23:12.812Z,9.64
2023-05-19T00:24:12.775Z,9.64
2023-05-19T00:25:12.773Z,9.62
2023-05-19T00:26:12.752Z,9.62
2023-05-19T00:27:12.758Z,9.62
2023-05-19T00:28:12.760Z,9.61
2023-05-19T00:29:12.725Z,9.61
2023-05-19T00:30:12.716Z,9.61
2023-05-19T00:31:12.696Z,9.59
2023-05-19T00:32:12.716Z,9.58
2023-05-19T00:33:12.737Z,9.58
2023-05-19T00:34:12.652Z,9.56
2023-05-19T00:35:12.641Z,9.55
2023-05-19T00:36:12.622Z,9.54
2023-05-19T00:37:12.640Z,9.54
2023-05-19T00:38:12.592Z,9.51
2023-05-19T00:39:12.587Z,9.51
2023-05-19T00:40:12.560Z,9.50
2023-05-19T00:41:12.580Z,9.50
2023-05-19T00:42:12.553Z,9.47
2023-05-19T00:43:12.543Z,9.48
2023-05-19T00:44:12.579Z,9.47
2023-05-19T00:45:12.520Z,9.47
2023-05-19T00:46:12.522Z,9.46
2023-05-19T00:47:12.495Z,9.46
2023-05-19T00:48:12.504Z,9.44
2023-05-19T00:49:12.452Z,9.43
2023-05-19T00:50:12.465Z,9.43
2023-05-19T00:51:12.441Z,9.43
2023-05-19T00:52:12.415Z,9.41
2023-05-19T00:53:12.393Z,9.41
2023-05-19T00:54:12.395Z,9.40
2023-05-19T00:55:12.371Z,9.39
2023-05-19T00:56:12.370Z,9.39
2023-05-19T00:57:12.347Z,9.37
2023-05-19T00:58:12.323Z,9.34
2023-05-19T00:59:12.322Z,9.34
2023-05-19T01:00:12.314Z,9.36
2023-05-19T01:01:12.524Z,9.32
2023-05-19T01:02:12.274Z,9.34
2023-05-19T01:03:19.952Z,9.31
2023-05-19T01:04:19.757Z,9.31
2023-05-19T01:05:12.252Z,9.29
2023-05-19T01:06:12.408Z,9.31
2023-05-19T01:07:12.219Z,9.32
2023-05-19T01:08:12.200Z,9.31
2023-05-19T01:09:12.265Z,9.29
2023-05-19T01:10:12.187Z,9.29
2023-05-19T01:11:12.165Z,9.28
2023-05-19T01:12:12.162Z,9.26
2023-05-19T01:13:12.142Z,9.25
2023-05-19T01:14:12.140Z,9.25
2023-05-19T01:15:12.106Z,9.25
2023-05-19T01:16:12.152Z,9.23
2023-05-19T01:17:19.578Z,9.25
2023-05-19T01:18:19.574Z,9.23
2023-05-19T01:19:20.877Z,9.23
2023-05-19T01:20:24.065Z,9.19
2023-05-19T01:21:12.025Z,9.19
2023-05-19T01:22:12.010Z,9.22
2023-05-19T01:23:11.999Z,9.21
2023-05-19T01:24:12.008Z,9.19
2023-05-19T01:25:11.979Z,9.19
2023-05-19T01:26:11.959Z,9.19
2023-05-19T01:27:11.950Z,9.18
2023-05-19T01:28:11.948Z,9.18
2023-05-19T01:29:11.939Z,9.16
2023-05-19T01:30:11.905Z,9.16
2023-05-19T01:31:11.912Z,9.16
2023-05-19T01:32:11.987Z,9.16
2023-05-19T01:33:11.884Z,9.13
2023-05-19T01:34:11.855Z,9.14
2023-05-19T01:35:11.843Z,9.14
2023-05-19T01:36:11.836Z,9.13
2023-05-19T01:37:11.815Z,9.13
2023-05-19T01:38:11.824Z,9.11
2023-05-19T01:39:11.793Z,9.10
2023-05-19T01:40:11.777Z,9.10
2023-05-19T01:41:11.755Z,9.10
2023-05-19T01:42:11.752Z,9.08
2023-05-19T01:43:11.763Z,9.08
2023-05-19T01:44:11.719Z,9.06
2023-05-19T01:45:11.712Z,9.04
2023-05-19T01:46:11.761Z,9.04
2023-05-19T01:47:11.706Z,9.04
2023-05-19T01:48:11.743Z,9.03
2023-05-19T01:49:11.657Z,9.03
2023-05-19T01:50:11.663Z,9.02
2023-05-19T01:51:11.629Z,9.02
2023-05-19T01:52:11.637Z,9.00
2023-05-19T01:53:11.601Z,8.99
2023-05-19T01:54:11.585Z,9.00
2023-05-19T01:55:11.586Z,8.97
2023-05-19T01:56:11.562Z,8.97
2023-05-19T01:57:11.593Z,8.99
2023-05-19T01:58:11.539Z,8.99
2023-05-19T01:59:11.528Z,8.97
2023-05-19T02:00:11.525Z,8.97
2023-05-19T02:01:11.543Z,8.95
2023-05-19T02:02:11.508Z,8.95
2023-05-19T02:03:11.482Z,8.94
2023-05-19T02:04:11.495Z,8.94
2023-05-19T02:05:11.453Z,8.94
2023-05-19T02:06:11.448Z,8.94
2023-05-19T02:07:11.431Z,8.94
2023-05-19T02:08:11.411Z,8.92
2023-05-19T02:09:11.391Z,8.92
2023-05-19T02:10:11.401Z,8.92
2023-05-19T02:11:11.395Z,8.92
2023-05-19T02:12:11.358Z,8.91
2023-05-19T02:13:11.346Z,8.91
2023-05-19T02:14:11.327Z,8.91
2023-05-19T02:15:11.323Z,8.91
2023-05-19T02:16:11.354Z,8.89
2023-05-19T02:17:11.305Z,8.89
2023-05-19T02:18:11.264Z,8.89
2023-05-19T02:19:18.836Z,8.89
2023-05-19T02:20:11.259Z,8.89
2023-05-19T02:21:11.248Z,8.89
2023-05-19T02:22:11.225Z,8.89
2023-05-19T02:23:11.199Z,8.88
2023-05-19T02:24:11.204Z,8.88
2023-05-19T02:25:11.196Z,8.88
2023-05-19T02:26:11.177Z,8.88
2023-05-19T02:27:11.147Z,8.85
2023-05-19T02:28:11.165Z,8.85
2023-05-19T02:29:11.127Z,8.84
2023-05-19T02:30:11.129Z,8.84
2023-05-19T02:31:11.092Z,8.85
2023-05-19T02:32:11.217Z,8.84
2023-05-19T02:33:11.130Z,8.82
2023-05-19T02:34:11.082Z,8.82
2023-05-19T02:35:11.055Z,8.82
2023-05-19T02:36:11.043Z,8.82
2023-05-19T02:37:12.020Z,8.81
2023-05-19T02:38:11.006Z,8.79
2023-05-19T02:39:11.026Z,8.78
2023-05-19T02:40:11.002Z,8.79
2023-05-19T02:41:10.960Z,8.79
2023-05-19T02:42:10.949Z,8.78
2023-05-19T02:43:10.934Z,8.78
2023-05-19T02:44:10.930Z,8.78
2023-05-19T02:45:10.910Z,8.76
2023-05-19T02:46:10.933Z,8.74
2023-05-19T02:47:10.880Z,8.74
2023-05-19T02:48:10.999Z,8.73
2023-05-19T02:49:10.870Z,8.74
2023-05-19T02:50:10.844Z,8.73
2023-05-19T02:51:10.835Z,8.71
2023-05-19T02:52:10.824Z,8.73
2023-05-19T02:53:10.812Z,8.71
2023-05-19T02:54:10.803Z,8.70
2023-05-19T02:55:10.774Z,8.70
2023-05-19T02:56:10.766Z,8.69
2023-05-19T02:57:10.757Z,8.69
2023-05-19T02:58:10.756Z,8.67
2023-05-19T02:59:10.724Z,8.69
2023-05-19T03:00:10.715Z,8.66
2023-05-19T03:01:10.703Z,8.66
2023-05-19T03:02:10.817Z,8.64
2023-05-19T03:03:10.769Z,8.66
2023-05-19T03:04:10.691Z,8.66
2023-05-19T03:05:10.649Z,8.63
2023-05-19T03:06:10.641Z,8.60
2023-05-19T03:07:10.629Z,8.61
2023-05-19T03:08:10.609Z,8.60
2023-05-19T03:09:10.605Z,8.58
2023-05-19T03:10:10.579Z,8.60
2023-05-19T03:11:10.578Z,8.55
2023-05-19T03:12:10.578Z,8.56
2023-05-19T03:13:10.546Z,8.55
2023-05-19T03:14:10.598Z,8.53
2023-05-19T03:15:10.507Z,8.53
2023-05-19T03:16:10.544Z,8.53
2023-05-19T03:17:10.524Z,8.53
2023-05-19T03:18:10.508Z,8.51
2023-05-19T03:19:10.487Z,8.49
2023-05-19T03:20:10.453Z,8.49
2023-05-19T03:21:10.447Z,8.48
2023-05-19T03:22:10.421Z,8.48
2023-05-19T03:23:10.444Z,8.46
2023-05-19T03:24:10.409Z,8.45
2023-05-19T03:25:10.402Z,8.45
2023-05-19T03:26:10.392Z,8.45
2023-05-19T03:27:10.354Z,8.42
2023-05-19T03:28:10.348Z,8.42
2023-05-19T03:29:10.336Z,8.41
2023-05-19T03:30:10.340Z,8.41
2023-05-19T03:31:10.313Z,8.37
2023-05-19T03:32:10.317Z,8.37
2023-05-19T03:33:10.392Z,8.34
2023-05-19T03:34:17.779Z,8.33
2023-05-19T03:35:18.956Z,8.31
2023-05-19T03:36:10.241Z,8.31
2023-05-19T03:37:10.223Z,8.30
2023-05-19T03:38:10.214Z,8.28
2023-05-19T03:39:10.199Z,8.28
2023-05-19T03:40:10.203Z,8.27
2023-05-19T03:41:10.166Z,8.27
2023-05-19T03:42:10.160Z,8.26
2023-05-19T03:43:10.142Z,8.24
2023-05-19T03:44:10.150Z,8.24
2023-05-19T03:45:10.129Z,8.24
2023-05-19T03:46:10.129Z,8.24
2023-05-19T03:47:10.089Z,8.20
2023-05-19T03:48:10.149Z,8.20
2023-05-19T03:49:10.078Z,8.23
2023-05-19T03:50:10.065Z,8.20
2023-05-19T03:51:10.059Z,8.19
2023-05-19T03:52:10.058Z,8.18
2023-05-19T03:53:10.025Z,8.18
2023-05-19T03:54:10.024Z,8.18
2023-05-19T03:55:09.985Z,8.19
2023-05-19T03:56:09.979Z,8.19
2023-05-19T03:57:09.960Z,8.18
2023-05-19T03:58:09.959Z,8.18
2023-05-19T03:59:09.940Z,8.18
2023-05-19T04:00:09.938Z,8.19
2023-05-19T04:01:09.902Z,8.16
2023-05-19T04:02:09.937Z,8.16
2023-05-19T04:03:10.011Z,8.16
2023-05-19T04:04:10.020Z,8.16
2023-05-19T04:05:09.865Z,8.16
2023-05-19T04:06:09.845Z,8.16
2023-05-19T04:07:09.822Z,8.16
2023-05-19T04:08:09.834Z,8.16
2023-05-19T04:09:09.796Z,8.18
2023-05-19T04:10:09.791Z,8.18
2023-05-19T04:11:09.777Z,8.16
2023-05-19T04:12:09.781Z,8.18
2023-05-19T04:13:09.759Z,8.19
2023-05-19T04:14:09.740Z,8.18
2023-05-19T04:15:09.725Z,8.18
2023-05-19T04:16:09.737Z,8.20
2023-05-19T04:17:09.717Z,8.20
2023-05-19T04:18:09.773Z,8.23
2023-05-19T04:19:09.688Z,8.26
2023-05-19T04:20:09.652Z,8.27
2023-05-19T04:21:09.636Z,8.28
2023-05-19T04:22:09.648Z,8.28
2023-05-19T04:23:09.614Z,8.31
2023-05-19T04:24:09.603Z,8.34
2023-05-19T04:25:09.599Z,8.34
2023-05-19T04:26:09.601Z,8.36
2023-05-19T04:27:09.583Z,8.41
2023-05-19T04:28:09.552Z,8.44
2023-05-19T04:29:09.533Z,8.45
2023-05-19T04:30:09.536Z,8.48
2023-05-19T04:31:09.547Z,8.51
2023-05-19T04:32:09.507Z,8.55
2023-05-19T04:33:09.563Z,8.55
2023-05-19T04:34:09.471Z,8.60
2023-05-19T04:35:09.461Z,8.63
2023-05-19T04:36:09.465Z,8.66
2023-05-19T04:37:09.432Z,8.67
2023-05-19T04:38:09.423Z,8.71
2023-05-19T04:39:09.406Z,8.73
2023-05-19T04:40:09.432Z,8.79
2023-05-19T04:41:09.398Z,8.81
2023-05-19T04:42:09.375Z,8.84
2023-05-19T04:43:09.350Z,8.85
2023-05-19T04:44:09.350Z,8.89
2023-05-19T04:45:09.338Z,8.92
2023-05-19T04:46:10.933Z,8.97
2023-05-19T04:47:09.395Z,8.99
2023-05-19T04:48:09.289Z,9.03
2023-05-19T04:49:18.960Z,9.08
2023-05-19T04:50:18.143Z,9.11
2023-05-19T04:51:09.246Z,9.16
2023-05-19T04:52:09.237Z,9.21
2023-05-19T04:53:09.228Z,9.25
2023-05-19T04:54:09.226Z,9.31
2023-05-19T04:55:09.218Z,9.34
2023-05-19T04:56:09.184Z,9.37
2023-05-19T04:57:09.164Z,9.40
2023-05-19T04:58:09.160Z,9.46
2023-05-19T04:59:09.162Z,9.46
2023-05-19T05:00:09.141Z,9.48
2023-05-19T05:01:09.121Z,9.50
2023-05-19T05:02:09.140Z,9.55
2023-05-19T05:03:09.157Z,9.58
2023-05-19T05:04:09.154Z,9.64
2023-05-19T05:05:09.059Z,9.65
2023-05-19T05:06:09.050Z,9.66
2023-05-19T05:07:09.036Z,9.72
2023-05-19T05:08:09.041Z,9.74
2023-05-19T05:09:09.022Z,9.76
2023-05-19T05:10:09.002Z,9.77
2023-05-19T05:11:08.998Z,9.82
2023-05-19T05:12:08.973Z,9.84
2023-05-19T05:13:11.138Z,9.84
2023-05-19T05:14:08.946Z,9.89
2023-05-19T05:15:08.925Z,9.91
2023-05-19T05:16:08.975Z,9.94
2023-05-19T05:17:08.898Z,9.94
2023-05-19T05:18:08.952Z,9.98
2023-05-19T05:19:08.948Z,10.01
2023-05-19T05:20:08.873Z,10.04
2023-05-19T05:21:08.848Z,10.05
2023-05-19T05:22:08.862Z,10.10
2023-05-19T05:23:08.838Z,10.13
2023-05-19T05:24:08.824Z,10.16
2023-05-19T05:25:08.813Z,10.19
2023-05-19T05:26:08.789Z,10.22
2023-05-19T05:27:08.782Z,10.23
2023-05-19T05:28:08.761Z,10.26
2023-05-19T05:29:08.748Z,10.31
2023-05-19T05:30:08.740Z,10.33
2023-05-19T05:31:08.720Z,10.35
2023-05-19T05:32:08.800Z,10.38
2023-05-19T05:33:08.934Z,10.42
2023-05-19T05:34:08.692Z,10.44
2023-05-19T05:35:08.674Z,10.48
2023-05-19T05:36:08.669Z,10.53
2023-05-19T05:37:08.648Z,10.56
2023-05-19T05:38:08.646Z,10.59
2023-05-19T05:39:08.610Z,10.63
2023-05-19T05:40:08.625Z,10.68
2023-05-19T05:41:08.601Z,10.69
2023-05-19T05:42:08.592Z,10.72
2023-05-19T05:43:08.608Z,10.76
2023-05-19T05:44:08.584Z,10.81
2023-05-19T05:45:08.544Z,10.84
2023-05-19T05:46:08.607Z,10.87
2023-05-19T05:47:08.524Z,10.92
2023-05-19T05:48:08.573Z,10.96
2023-05-19T05:49:08.489Z,11.00
2023-05-19T05:50:08.485Z,11.04
2023-05-19T05:51:08.593Z,11.08
2023-05-19T05:52:08.448Z,11.12
2023-05-19T05:53:08.429Z,11.17
2023-05-19T05:54:08.414Z,11.22
2023-05-19T05:55:08.441Z,11.26
2023-05-19T05:56:08.378Z,11.30
2023-05-19T05:57:08.374Z,11.36
2023-05-19T05:58:08.361Z,11.41
2023-05-19T05:59:08.376Z,11.44
2023-05-19T06:00:08.340Z,11.48
2023-05-19T06:01:08.330Z,11.54
2023-05-19T06:02:08.340Z,11.59
2023-05-19T06:03:08.414Z,11.65
2023-05-19T06:04:08.408Z,11.72
2023-05-19T06:05:18.028Z,11.75
2023-05-19T06:06:08.257Z,11.83
2023-05-19T06:07:08.249Z,11.87
2023-05-19T06:08:08.256Z,11.94
2023-05-19T06:09:08.235Z,12.02
2023-05-19T06:10:08.214Z,12.09
2023-05-19T06:11:08.272Z,12.12
2023-05-19T06:12:08.205Z,12.20
2023-05-19T06:13:08.175Z,12.25
2023-05-19T06:14:08.162Z,12.35
2023-05-19T06:15:08.137Z,12.42
2023-05-19T06:16:08.205Z,12.50
2023-05-19T06:17:08.138Z,12.55
2023-05-19T06:18:08.156Z,12.61
2023-05-19T06:19:08.161Z,12.70
2023-05-19T06:20:08.089Z,12.80
2023-05-19T06:21:08.064Z,12.87
2023-05-19T06:22:08.035Z,12.95
2023-05-19T06:23:08.047Z,13.04
2023-05-19T06:24:08.020Z,13.13
2023-05-19T06:25:08.093Z,13.23
2023-05-19T06:26:07.993Z,13.35
2023-05-19T06:27:07.986Z,13.46
2023-05-19T06:28:07.979Z,13.54
2023-05-19T06:29:07.956Z,13.70
2023-05-19T06:30:07.949Z,13.86
2023-05-19T06:31:07.998Z,13.99
2023-05-19T06:32:07.928Z,14.10
2023-05-19T06:33:07.969Z,14.20
2023-05-19T06:34:07.885Z,14.35
2023-05-19T06:35:07.881Z,14.50
2023-05-19T06:36:07.853Z,14.68
2023-05-19T06:37:15.890Z,14.81
2023-05-19T06:38:14.847Z,14.92
2023-05-19T06:39:14.846Z,15.03
2023-05-19T06:40:15.312Z,15.17
2023-05-19T06:41:07.817Z,15.31
2023-05-19T06:42:07.831Z,15.43
2023-05-19T06:43:07.786Z,15.57
2023-05-19T06:44:07.759Z,15.64
2023-05-19T06:45:07.750Z,15.73
2023-05-19T06:46:07.741Z,15.80
2023-05-19T06:47:07.860Z,15.91
2023-05-19T06:48:07.751Z,16.04
2023-05-19T06:49:07.700Z,16.15
2023-05-19T06:50:07.672Z,16.28
2023-05-19T06:51:07.692Z,16.47
2023-05-19T06:52:07.677Z,16.65
2023-05-19T06:53:07.639Z,16.79
2023-05-19T06:54:07.626Z,16.96
2023-05-19T06:55:07.624Z,17.11
2023-05-19T06:56:07.685Z,17.26
2023-05-19T06:57:07.581Z,17.38
2023-05-19T06:58:07.983Z,17.44
2023-05-19T06:59:07.558Z,17.49
2023-05-19T07:00:07.569Z,17.52
2023-05-19T07:01:07.557Z,17.60
2023-05-19T07:02:07.628Z,17.72
2023-05-19T07:03:07.627Z,17.87
2023-05-19T07:04:07.689Z,18.08
2023-05-19T07:05:07.495Z,18.37
2023-05-19T07:06:08.492Z,18.68
2023-05-19T07:07:07.460Z,19.07
2023-05-19T07:08:07.439Z,19.45
2023-05-19T07:09:07.425Z,19.85
2023-05-19T07:10:07.453Z,20.24
2023-05-19T07:11:07.406Z,20.62
2023-05-19T07:12:07.381Z,20.95
2023-05-19T07:13:07.370Z,21.25
2023-05-19T07:14:07.363Z,21.54
2023-05-19T07:15:07.355Z,21.77
2023-05-19T07:16:07.334Z,22.07
2023-05-19T07:17:07.314Z,22.36
2023-05-19T07:18:07.372Z,22.65
2023-05-19T07:19:07.328Z,22.94
2023-05-19T07:20:07.275Z,23.20
2023-05-19T07:21:07.285Z,23.47
2023-05-19T07:22:07.252Z,23.68
2023-05-19T07:23:07.252Z,23.92
2023-05-19T07:24:07.246Z,24.14
2023-05-19T07:25:07.222Z,24.35
2023-05-19T07:26:07.211Z,24.57
2023-05-19T07:27:07.193Z,24.80
2023-05-19T07:28:07.183Z,25.01
2023-05-19T07:29:07.169Z,25.21
2023-05-19T07:30:07.168Z,25.41
2023-05-19T07:31:07.155Z,25.59
2023-05-19T07:32:07.126Z,25.78
2023-05-19T07:33:07.205Z,25.96
2023-05-19T07:34:07.090Z,26.13
2023-05-19T07:35:07.079Z,26.29
2023-05-19T07:36:07.080Z,26.52
2023-05-19T07:37:07.051Z,26.70
2023-05-19T07:38:07.054Z,26.89
2023-05-19T07:39:07.077Z,27.10
2023-05-19T07:40:07.024Z,27.27
2023-05-19T07:41:07.030Z,27.42
2023-05-19T07:42:07.001Z,27.58
2023-05-19T07:43:06.990Z,27.75
2023-05-19T07:44:06.955Z,27.92
2023-05-19T07:45:06.943Z,28.11
2023-05-19T07:46:06.969Z,28.27
2023-05-19T07:47:06.932Z,28.42
2023-05-19T07:48:06.932Z,28.59
2023-05-19T07:49:06.895Z,28.75
2023-05-19T07:50:06.877Z,28.89
2023-05-19T07:51:06.869Z,29.05
2023-05-19T07:52:06.882Z,29.19
2023-05-19T07:53:06.831Z,29.32
2023-05-19T07:54:06.815Z,29.44
2023-05-19T07:55:06.816Z,29.54
2023-05-19T07:56:06.783Z,29.68
2023-05-19T07:57:06.817Z,29.82
2023-05-19T07:58:06.770Z,29.97
2023-05-19T07:59:06.757Z,30.12
2023-05-19T08:00:06.743Z,30.27
2023-05-19T08:01:06.743Z,30.43
2023-05-19T08:02:06.755Z,30.57
2023-05-19T08:03:06.866Z,30.69
2023-05-19T08:04:06.762Z,30.84
2023-05-19T08:05:06.687Z,30.97
2023-05-19T08:06:06.692Z,31.10
2023-05-19T08:07:06.669Z,31.25
2023-05-19T08:08:06.626Z,31.40
2023-05-19T08:09:06.615Z,31.55
2023-05-19T08:10:06.622Z,31.69
2023-05-19T08:11:06.641Z,31.80
2023-05-19T08:12:06.587Z,31.94
2023-05-19T08:13:06.572Z,32.08
2023-05-19T08:14:06.552Z,32.18
2023-05-19T08:15:06.562Z,32.33
2023-05-19T08:16:06.601Z,32.45
2023-05-19T08:17:06.544Z,32.56
2023-05-19T08:18:06.564Z,32.68
2023-05-19T08:19:06.515Z,32.80
2023-05-19T08:20:06.499Z,32.95
2023-05-19T08:21:06.468Z,32.92
2023-05-19T08:22:06.443Z,33.02
2023-05-19T08:23:06.468Z,33.11
2023-05-19T08:24:06.516Z,33.24
2023-05-19T08:25:06.421Z,33.37
2023-05-19T08:26:06.408Z,33.50
2023-05-19T08:27:06.391Z,33.61
2023-05-19T08:28:06.385Z,33.71
2023-05-19T08:29:06.365Z,33.83
2023-05-19T08:30:15.050Z,33.94
2023-05-19T08:31:06.387Z,34.06
2023-05-19T08:32:06.329Z,34.21
2023-05-19T08:33:06.393Z,34.36
2023-05-19T08:34:06.306Z,34.47
2023-05-19T08:35:06.276Z,34.61
2023-05-19T08:36:06.288Z,34.73
2023-05-19T08:37:06.261Z,34.85
2023-05-19T08:38:06.255Z,34.96
2023-05-19T08:39:06.265Z,35.08
2023-05-19T08:40:06.223Z,35.18
2023-05-19T08:41:06.279Z,35.30
2023-05-19T08:42:06.184Z,35.42
2023-05-19T08:43:06.285Z,35.52
2023-05-19T08:44:06.202Z,35.66
2023-05-19T08:45:06.265Z,35.76
2023-05-19T08:46:06.221Z,35.85
2023-05-19T08:47:06.271Z,35.93
2023-05-19T08:48:06.278Z,36.04
2023-05-19T08:49:06.178Z,36.09
2023-05-19T08:50:06.075Z,36.16
2023-05-19T08:51:06.074Z,36.09
2023-05-19T08:52:06.045Z,36.12
2023-05-19T08:53:06.070Z,36.24
2023-05-19T08:54:06.024Z,36.36
2023-05-19T08:55:06.050Z,36.46
2023-05-19T08:56:05.990Z,36.55
2023-05-19T08:57:06.016Z,36.64
2023-05-19T08:58:05.976Z,36.70
2023-05-19T08:59:05.951Z,36.79
2023-05-19T09:00:05.938Z,36.88
2023-05-19T09:01:05.969Z,36.98
2023-05-19T09:02:05.923Z,37.06
2023-05-19T09:03:17.526Z,37.13
2023-05-19T09:04:07.070Z,37.20
2023-05-19T09:05:05.914Z,37.26
2023-05-19T09:06:05.887Z,37.33
2023-05-19T09:07:05.862Z,37.37
2023-05-19T09:08:05.833Z,37.42
2023-05-19T09:09:05.823Z,37.48
2023-05-19T09:10:05.819Z,37.55
2023-05-19T09:11:05.810Z,37.63
2023-05-19T09:12:05.795Z,37.67
2023-05-19T09:13:05.779Z,37.77
2023-05-19T09:14:05.790Z,37.86
2023-05-19T09:15:05.748Z,37.94
2023-05-19T09:16:05.787Z,38.02
2023-05-19T09:17:06.010Z,38.05
2023-05-19T09:18:05.718Z,38.11
2023-05-19T09:19:05.735Z,38.14
2023-05-19T09:20:05.682Z,38.21
2023-05-19T09:21:05.681Z,38.26
2023-05-19T09:22:05.649Z,38.30
2023-05-19T09:23:05.648Z,38.24
2023-05-19T09:24:05.616Z,38.27
2023-05-19T09:25:05.646Z,38.34
2023-05-19T09:26:05.614Z,38.39
2023-05-19T09:27:05.585Z,38.36
2023-05-19T09:28:05.569Z,37.94
2023-05-19T09:29:05.554Z,37.55
2023-05-19T09:30:05.569Z,37.59
2023-05-19T09:31:05.527Z,37.59
2023-05-19T09:32:05.590Z,37.35
2023-05-19T09:33:05.635Z,37.01
2023-05-19T09:34:05.487Z,36.64
2023-05-19T09:35:05.488Z,36.67
2023-05-19T09:36:05.459Z,36.70
2023-05-19T09:37:05.456Z,36.40
2023-05-19T09:38:05.433Z,36.05
2023-05-19T09:39:05.427Z,35.70
2023-05-19T09:40:05.429Z,35.33
2023-05-19T09:41:05.398Z,34.99
2023-05-19T09:42:05.388Z,34.66
2023-05-19T09:43:05.368Z,34.35
2023-05-19T09:44:05.375Z,34.23
2023-05-19T09:45:05.353Z,34.21
2023-05-19T09:46:05.351Z,34.45
2023-05-19T09:47:05.320Z,34.78
2023-05-19T09:48:05.438Z,35.07
2023-05-19T09:49:05.316Z,35.30
2023-05-19T09:50:05.279Z,35.53
2023-05-19T09:51:05.282Z,35.53
2023-05-19T09:52:05.256Z,35.34
2023-05-19T09:53:05.240Z,35.11
2023-05-19T09:54:05.228Z,35.15
2023-05-19T09:55:05.216Z,34.90
2023-05-19T09:56:05.203Z,34.60
2023-05-19T09:57:07.094Z,34.33
2023-05-19T09:58:05.185Z,34.03
2023-05-19T09:59:05.177Z,33.74
2023-05-19T10:00:05.153Z,33.47
2023-05-19T10:01:05.633Z,33.19
2023-05-19T10:02:05.121Z,32.96
2023-05-19T10:03:05.177Z,32.74
2023-05-19T10:04:06.025Z,32.55
2023-05-19T10:05:05.099Z,32.41
2023-05-19T10:06:05.101Z,32.53
2023-05-19T10:07:05.049Z,32.85
2023-05-19T10:08:05.058Z,33.15
2023-05-19T10:09:05.017Z,33.15
2023-05-19T10:10:05.030Z,33.02
2023-05-19T10:11:05.002Z,33.09
2023-05-19T10:12:05.028Z,33.39
2023-05-19T10:13:04.986Z,33.53
2023-05-19T10:14:04.960Z,33.43
2023-05-19T10:15:04.953Z,33.23
2023-05-19T10:16:04.957Z,33.00
2023-05-19T10:17:05.079Z,32.77
2023-05-19T10:18:04.988Z,32.52
2023-05-19T10:19:04.939Z,32.33
2023-05-19T10:20:04.991Z,32.11
2023-05-19T10:21:04.880Z,32.21
2023-05-19T10:22:04.883Z,32.51
2023-05-19T10:23:04.836Z,32.78
2023-05-19T10:24:04.826Z,33.09
2023-05-19T10:25:04.816Z,33.40
2023-05-19T10:26:04.829Z,33.69
2023-05-19T10:27:04.807Z,33.98
2023-05-19T10:28:04.781Z,34.25
2023-05-19T10:29:04.761Z,34.50
2023-05-19T10:30:04.811Z,34.75
2023-05-19T10:31:04.765Z,34.97
2023-05-19T10:32:04.752Z,35.04
2023-05-19T10:33:04.815Z,34.73
2023-05-19T10:34:04.717Z,34.38
2023-05-19T10:35:04.677Z,34.13
2023-05-19T10:36:04.700Z,34.16
2023-05-19T10:37:04.664Z,34.16
2023-05-19T10:38:04.633Z,33.95
2023-05-19T10:39:04.625Z,33.84
2023-05-19T10:40:04.626Z,33.96
2023-05-19T10:41:04.615Z,34.03
2023-05-19T10:42:04.591Z,33.96
2023-05-19T10:43:04.567Z,33.98
2023-05-19T10:44:04.642Z,34.06
2023-05-19T10:45:04.556Z,34.17
2023-05-19T10:46:04.540Z,34.30
2023-05-19T10:47:04.608Z,34.45
2023-05-19T10:48:04.637Z,34.58
2023-05-19T10:49:04.498Z,34.73
2023-05-19T10:50:04.501Z,34.81
2023-05-19T10:51:04.464Z,34.95
2023-05-19T10:52:04.492Z,35.04
2023-05-19T10:53:04.455Z,35.10
2023-05-19T10:54:04.440Z,35.18
2023-05-19T10:55:04.440Z,35.23
2023-05-19T10:56:04.477Z,35.33
2023-05-19T10:57:04.406Z,35.45
2023-05-19T10:58:04.404Z,35.30
2023-05-19T10:59:04.362Z,35.07
2023-05-19T11:00:04.360Z,34.80
2023-05-19T11:01:04.330Z,34.50
2023-05-19T11:02:04.403Z,34.21
2023-05-19T11:03:04.360Z,33.96
2023-05-19T11:04:04.343Z,33.73
2023-05-19T11:05:04.295Z,33.52
2023-05-19T11:06:04.278Z,33.46
2023-05-19T11:07:04.265Z,33.45
2023-05-19T11:08:04.285Z,33.46
2023-05-19T11:09:04.260Z,33.45
2023-05-19T11:10:04.226Z,33.47
2023-05-19T11:11:04.213Z,33.46
2023-05-19T11:12:04.227Z,33.43
2023-05-19T11:13:06.366Z,33.37
2023-05-19T11:14:11.685Z,33.42
2023-05-19T11:15:04.158Z,33.46
2023-05-19T11:16:04.139Z,33.50
2023-05-19T11:17:04.259Z,33.52
2023-05-19T11:18:04.156Z,33.47
2023-05-19T11:19:04.145Z,33.37
2023-05-19T11:20:12.624Z,33.24
2023-05-19T11:21:11.608Z,33.24
2023-05-19T11:22:12.787Z,33.30
2023-05-19T11:23:13.014Z,33.36
2023-05-19T11:24:11.566Z,33.39
2023-05-19T11:25:04.034Z,33.39
2023-05-19T11:26:03.995Z,33.27
2023-05-19T11:27:04.006Z,33.22
2023-05-19T11:28:03.988Z,33.17
2023-05-19T11:29:03.966Z,33.11
2023-05-19T11:30:04.009Z,33.07
2023-05-19T11:31:03.936Z,33.04
2023-05-19T11:32:04.012Z,32.96
2023-05-19T11:33:03.932Z,32.86
2023-05-19T11:34:03.914Z,32.75
2023-05-19T11:35:03.891Z,32.65
2023-05-19T11:36:03.891Z,32.55
2023-05-19T11:37:03.873Z,32.51
2023-05-19T11:38:03.844Z,32.55
2023-05-19T11:39:03.857Z,32.53
2023-05-19T11:40:03.843Z,32.64
2023-05-19T11:41:03.840Z,32.75
2023-05-19T11:42:03.801Z,32.83
2023-05-19T11:43:03.772Z,32.95
2023-05-19T11:44:03.765Z,33.07
2023-05-19T11:45:03.798Z,33.20
2023-05-19T11:46:03.796Z,33.28
2023-05-19T11:47:03.747Z,33.31
2023-05-19T11:48:03.808Z,33.32
2023-05-19T11:49:03.720Z,33.20
2023-05-19T11:50:03.712Z,33.09
2023-05-19T11:51:03.694Z,32.96
2023-05-19T11:52:03.706Z,32.86
2023-05-19T11:53:03.649Z,32.86
2023-05-19T11:54:03.635Z,32.90
2023-05-19T11:55:03.637Z,33.00
2023-05-19T11:56:03.615Z,33.08
2023-05-19T11:57:03.605Z,33.15
2023-05-19T11:58:05.517Z,33.17
2023-05-19T11:59:03.579Z,33.22
2023-05-19T12:00:03.565Z,33.32
2023-05-19T12:01:03.551Z,33.46
2023-05-19T12:02:03.522Z,33.55
2023-05-19T12:03:03.579Z,33.65
2023-05-19T12:04:03.577Z,33.74
2023-05-19T12:05:03.535Z,33.62
2023-05-19T12:06:03.485Z,33.40
2023-05-19T12:07:03.453Z,33.32
2023-05-19T12:08:03.455Z,33.36
2023-05-19T12:09:03.436Z,33.45
2023-05-19T12:10:03.448Z,33.52
2023-05-19T12:11:03.425Z,33.61
2023-05-19T12:12:03.405Z,33.73
2023-05-19T12:13:03.376Z,33.83
2023-05-19T12:14:03.382Z,33.94
2023-05-19T12:15:03.356Z,34.03
2023-05-19T12:16:03.374Z,34.01
2023-05-19T12:17:03.471Z,33.98
2023-05-19T12:18:03.476Z,34.01
2023-05-19T12:19:03.352Z,34.06
2023-05-19T12:20:03.317Z,34.03
2023-05-19T12:21:03.310Z,34.01
2023-05-19T12:22:04.088Z,33.95
2023-05-19T12:23:03.284Z,33.83
2023-05-19T12:24:03.295Z,33.73
2023-05-19T12:25:03.228Z,33.62
2023-05-19T12:26:03.236Z,33.52
2023-05-19T12:27:03.202Z,33.40
2023-05-19T12:28:03.636Z,33.30
2023-05-19T12:29:03.190Z,33.22
2023-05-19T12:30:03.178Z,33.12
2023-05-19T12:31:03.167Z,33.07
2023-05-19T12:32:11.873Z,32.97
2023-05-19T12:33:12.105Z,32.93
2023-05-19T12:34:03.123Z,32.89
2023-05-19T12:35:03.120Z,32.85
2023-05-19T12:36:03.080Z,32.78
2023-05-19T12:37:03.106Z,32.74
2023-05-19T12:38:03.067Z,32.73
2023-05-19T12:39:03.082Z,32.70
2023-05-19T12:40:03.063Z,32.70
2023-05-19T12:41:03.038Z,32.73
2023-05-19T12:42:03.070Z,32.73
2023-05-19T12:43:03.120Z,32.71
2023-05-19T12:44:03.103Z,32.70
2023-05-19T12:45:03.384Z,32.70
2023-05-19T12:46:03.039Z,32.64
2023-05-19T12:47:02.958Z,32.40
2023-05-19T12:48:02.989Z,32.18
2023-05-19T12:49:02.958Z,32.07
2023-05-19T12:50:02.918Z,32.00
2023-05-19T12:51:02.926Z,31.97
2023-05-19T12:52:04.778Z,31.94
2023-05-19T12:53:02.863Z,31.93
2023-05-19T12:54:02.843Z,31.90
2023-05-19T12:55:02.979Z,31.84
2023-05-19T12:56:02.953Z,31.80
2023-05-19T12:57:02.799Z,31.77
2023-05-19T12:58:02.867Z,31.74
2023-05-19T12:59:02.928Z,31.71
2023-05-19T13:00:02.809Z,31.66
2023-05-19T13:01:02.951Z,31.62
2023-05-19T13:02:02.887Z,31.56